METAR Data
IDs: Format: Raw Decoded Include TAF

Data at: 2324 UTC 30 Jun 2022

METAR for:KJGG (Williamsburg-Jamesto, VA, US)
Text:KJGG 302315Z AUTO 15008KT 10SM SCT065 SCT110 30/22 A3015 RMK AO1
Temperature: 30.0°C ( 86°F)
Dewpoint: 22.0°C ( 72°F) [RH = 62%]
Pressure (altimeter):30.15 inches Hg (1021.1 mb)
Winds:from the SSE (150 degrees) at 9 MPH (8 knots; 4.1 m/s)
Visibility:10 or more sm (16+ km)
Ceiling:at least 12,000 feet AGL
Clouds: scattered clouds at 6500 feet AGL, scattered clouds at 11000 feet AGL
QC Flag:automated observation with no human augmentation

TAF for:KJGG (Williamsburg-Jamesto, VA, US)
Text:No data found